Time;durP1;ratioP1;P1;durP2;ratioP2;P2;SDS_P1;SDS_P2;PMS_P1;PMS_P2;Temp;Humidity;BMP_temperature;BMP_pressure;BME280_temperature;BME280_humidity;BME280_pressure;Samples;Min_cycle;Max_cycle;Signal;HPM_P1;HPM_P2
2022/12/21 00:01:43;;;;;;;46.85;23.22;;;;;;;3.46;83.25;100700.00;1780600;80;20169;-74
2022/12/21 00:04:28;;;;;;;43.03;22.80;;;;;;;3.45;83.30;100693.17;1802946;77;21461;-73
2022/12/21 00:07:13;;;;;;;42.70;22.58;;;;;;;3.45;83.30;100689.33;1792296;78;21023;-73
2022/12/21 00:09:58;;;;;;;41.70;22.25;;;;;;;3.43;83.27;100682.06;1801522;77;21007;-73
2022/12/21 00:12:44;;;;;;;47.23;22.60;;;;;;;3.43;83.25;100692.29;1799093;77;20976;-73
2022/12/21 00:15:29;;;;;;;43.00;21.75;;;;;;;3.42;83.24;100693.98;1768433;78;21401;-73
2022/12/21 00:18:14;;;;;;;48.08;23.07;;;;;;;3.42;83.24;100691.42;1780690;78;21092;-74
2022/12/21 00:21:03;;;;;;;45.23;22.27;;;;;;;3.41;83.25;100678.20;1776992;78;20973;-73
2022/12/21 00:23:51;;;;;;;42.05;22.32;;;;;;;3.42;83.23;100677.79;1775988;79;21942;-73
2022/12/21 00:26:38;;;;;;;42.88;22.82;;;;;;;3.41;83.20;100680.77;1771527;79;21540;-74
2022/12/21 00:29:22;;;;;;;42.17;21.82;;;;;;;3.41;83.19;100679.48;1771353;79;21117;-74
2022/12/21 00:32:07;;;;;;;45.58;23.52;;;;;;;3.40;83.22;100682.88;1763375;79;21749;-73
2022/12/21 00:34:53;;;;;;;45.98;22.27;;;;;;;3.39;83.18;100690.11;1739198;80;21081;-74
2022/12/21 00:37:38;;;;;;;44.27;22.80;;;;;;;3.38;83.17;100692.64;1741399;80;21649;-73
2022/12/21 00:40:23;;;;;;;44.50;22.90;;;;;;;3.36;83.14;100680.26;1745043;80;21077;-73
2022/12/21 00:43:08;;;;;;;43.23;22.75;;;;;;;3.36;83.17;100682.81;1741078;81;21113;-73
2022/12/21 00:45:53;;;;;;;41.88;22.00;;;;;;;3.36;83.13;100673.87;1767883;78;21019;-73
2022/12/21 00:48:38;;;;;;;46.98;22.95;;;;;;;3.35;83.16;100660.23;1763867;80;21579;-73
2022/12/21 00:51:25;;;;;;;42.65;21.90;;;;;;;3.35;83.14;100653.84;1767164;78;21072;-73
2022/12/21 00:54:10;;;;;;;46.50;23.60;;;;;;;3.35;83.13;100660.65;1768152;80;21041;-73
2022/12/21 00:56:55;;;;;;;43.85;23.22;;;;;;;3.35;83.09;100670.45;1767747;79;21048;-73
2022/12/21 00:59:41;;;;;;;45.00;22.48;;;;;;;3.32;83.07;100661.05;1767549;78;21128;-73
2022/12/21 01:02:26;;;;;;;44.65;22.85;;;;;;;3.31;83.11;100643.99;1770400;78;25852;-73
2022/12/21 01:05:11;;;;;;;45.85;23.18;;;;;;;3.30;83.10;100644.83;1765063;80;21103;-74
2022/12/21 01:07:57;;;;;;;47.20;23.32;;;;;;;3.30;83.09;100645.25;1767902;78;22217;-74
2022/12/21 01:10:43;;;;;;;41.60;22.80;;;;;;;3.30;83.08;100647.80;1774099;78;21115;-73
2022/12/21 01:13:31;;;;;;;44.08;22.27;;;;;;;3.28;83.08;100655.45;1776447;78;21725;-74
2022/12/21 01:16:23;;;;;;;43.45;22.32;;;;;;;3.25;83.04;100659.23;1765093;78;21433;-74
2022/12/21 01:19:09;;;;;;;43.78;22.22;;;;;;;3.23;83.06;100645.58;1758794;78;21292;-73
2022/12/21 01:21:54;;;;;;;;;;;;;;;3.21;83.02;100642.56;1769091;78;21023;-73
2022/12/21 01:24:40;;;;;;;48.57;23.50;;;;;;;3.19;82.97;100645.52;1729057;80;20218;-74
2022/12/21 01:27:24;;;;;;;40.55;21.17;;;;;;;3.19;83.03;100644.23;1737241;80;21053;-74
2022/12/21 01:30:10;;;;;;;45.30;23.15;;;;;;;3.17;83.00;100639.11;1768154;78;21087;-74
2022/12/21 01:32:55;;;;;;;48.42;23.77;;;;;;;3.16;83.02;100637.80;1763433;79;21123;-74
2022/12/21 01:35:41;;;;;;;40.17;21.48;;;;;;;3.15;83.01;100639.92;1766760;79;21437;-74
2022/12/21 01:38:26;;;;;;;44.73;22.02;;;;;;;3.14;82.99;100640.34;1764671;79;28094;-74
2022/12/21 01:41:20;;;;;;;41.50;21.05;;;;;;;3.15;82.99;100638.64;1762799;79;21446;-74
2022/12/21 01:44:43;;;;;;;42.98;21.35;;;;;;;3.15;83.01;100628.42;1767166;78;21483;-75
2022/12/21 01:47:39;;;;;;;44.77;22.32;;;;;;;3.14;82.99;100621.17;1778218;78;20893;-74
2022/12/21 01:50:48;;;;;;;43.63;21.23;;;;;;;3.14;82.97;100625.01;1775725;79;21505;-74
2022/12/21 01:53:40;;;;;;;40.48;21.15;;;;;;;3.15;82.97;100616.51;1773845;78;20928;-74
2022/12/21 01:56:34;;;;;;;44.20;21.55;;;;;;;3.15;82.97;100612.67;1777326;80;20898;-74
2022/12/21 01:59:27;;;;;;;41.08;21.97;;;;;;;3.17;82.93;100610.14;1772158;78;20889;-74
2022/12/21 02:02:20;;;;;;;43.42;21.62;;;;;;;3.16;82.91;100604.17;1773554;79;20941;-75
2022/12/21 02:05:48;;;;;;;38.42;21.73;;;;;;;3.17;82.93;100607.59;1753288;80;20905;-74
2022/12/21 02:08:32;;;;;;;44.33;22.37;;;;;;;3.17;82.93;100605.03;1759686;78;20952;-74
2022/12/21 02:11:18;;;;;;;42.93;21.35;;;;;;;3.16;82.91;100604.59;1776743;78;20937;-74
2022/12/21 02:14:02;;;;;;;43.68;21.85;;;;;;;3.17;82.90;100598.23;1769871;78;20897;-74
2022/12/21 02:16:59;;;;;;;47.98;22.35;;;;;;;3.16;82.91;100594.38;1782487;78;20924;-74
2022/12/21 02:20:20;;;;;;;38.42;20.68;;;;;;;3.16;82.89;100591.81;1777357;79;21767;-74
2022/12/21 02:23:39;;;;;;;47.45;21.73;;;;;;;3.14;82.88;100602.02;1774025;78;21318;-74
2022/12/21 02:26:51;;;;;;;43.52;21.95;;;;;;;3.14;82.85;100612.23;1770871;79;21362;-74
2022/12/21 02:30:13;;;;;;;41.75;21.65;;;;;;;3.12;82.82;100612.63;1778583;79;20905;-74
2022/12/21 02:33:03;;;;;;;47.15;22.58;;;;;;;3.09;82.81;100596.02;1774665;78;20955;-74
2022/12/21 02:36:23;;;;;;;41.58;21.02;;;;;;;3.08;82.81;100604.94;1770365;79;20886;-74
2022/12/21 02:39:28;;;;;;;43.17;21.37;;;;;;;3.07;82.80;100590.03;1772887;79;20933;-74
2022/12/21 02:46:25;;;;;;;43.55;21.70;;;;;;;3.04;82.77;100573.80;1769612;78;20901;-74
2022/12/21 02:49:22;;;;;;;40.33;21.15;;;;;;;2.99;82.74;100573.31;1774412;79;20921;-74
2022/12/21 02:52:17;;;;;;;44.40;21.55;;;;;;;2.98;82.75;100589.48;1774966;78;20893;-74
2022/12/21 02:55:03;;;;;;;39.92;21.20;;;;;;;2.98;82.76;100574.16;1725932;82;20914;-73
2022/12/21 02:57:47;;;;;;;38.60;21.60;;;;;;;2.97;82.77;100573.71;1703927;81;20950;-74
2022/12/21 03:00:32;;;;;;;40.52;21.25;;;;;;;2.98;82.75;100585.64;1714287;82;20957;-74
2022/12/21 03:03:49;;;;;;;45.35;22.52;;;;;;;2.98;82.75;100589.89;1709807;82;21474;-74
2022/12/21 03:06:58;;;;;;;41.50;21.12;;;;;;;2.97;82.71;100584.34;1723288;82;20909;-74
2022/12/21 03:10:21;;;;;;;40.12;21.45;;;;;;;2.97;82.71;100590.73;1720499;82;21960;-73
2022/12/21 03:13:53;;;;;;;40.88;21.25;;;;;;;2.96;82.69;100591.56;1727844;82;21355;-73
2022/12/21 03:16:52;;;;;;;38.35;20.17;;;;;;;2.94;82.70;100582.61;1716653;80;21011;-73
2022/12/21 03:19:42;;;;;;;46.63;21.87;;;;;;;2.94;82.70;100586.86;1703539;82;20987;-74
2022/12/21 03:22:41;;;;;;;39.60;20.77;;;;;;;2.93;82.70;100578.34;1698229;82;20907;-74
2022/12/21 03:25:34;;;;;;;42.30;21.27;;;;;;;2.93;82.67;100588.97;1724558;78;1005314;-74
2022/12/21 03:28:24;;;;;;;39.15;20.80;;;;;;;2.92;82.66;100579.59;1610983;83;5001262;-74
2022/12/21 03:31:14;;;;;;;48.58;20.72;;;;;;;2.92;82.65;100585.98;1694581;82;20941;-74
2022/12/21 03:34:09;;;;;;;40.10;20.10;;;;;;;2.92;82.66;100589.80;1688297;82;21421;-73
2022/12/21 03:37:05;;;;;;;38.90;21.40;;;;;;;2.93;82.66;100583.45;1698567;82;20945;-73
2022/12/21 03:39:58;;;;;;;40.75;20.95;;;;;;;2.93;82.65;100576.20;1688847;82;21414;-74
2022/12/21 03:42:48;;;;;;;40.28;21.68;;;;;;;2.94;82.64;100564.73;1311860;82;5002737;-74
2022/12/21 03:45:38;;;;;;;35.52;19.52;;;;;;;2.95;82.64;100565.59;1691586;83;21474;-73
2022/12/21 03:48:43;;;;;;;39.50;20.20;;;;;;;2.94;82.64;100562.18;1690768;82;20977;-74
2022/12/21 03:51:45;;;;;;;41.88;20.82;;;;;;;2.95;82.61;100556.23;1687212;84;20896;-74
2022/12/21 03:54:38;;;;;;;35.15;18.70;;;;;;;2.95;82.63;100558.79;1673707;83;20962;-74
2022/12/21 03:57:25;;;;;;;35.23;19.65;;;;;;;2.96;82.65;100557.95;1660548;83;20938;-74
2022/12/21 04:00:11;;;;;;;40.03;21.57;;;;;;;2.95;82.60;100561.76;1553838;83;5001621;-74
2022/12/21 04:03:06;;;;;;;;;;;;;;;2.95;82.58;100564.31;1695567;82;20942;-74
2022/12/21 04:06:01;;;;;;;37.48;19.25;;;;;;;2.94;82.56;100566.42;1702479;82;20129;-74
2022/12/21 04:08:47;;;;;;;44.55;19.90;;;;;;;2.96;82.62;100567.30;1681999;82;20956;-74
2022/12/21 04:14:40;;;;;;;41.60;20.02;;;;;;;2.96;82.54;100569.86;1692473;82;20135;-74
2022/12/21 04:17:24;;;;;;;42.73;19.53;;;;;;;2.96;82.58;100566.03;1655649;84;20887;-73
2022/12/21 04:20:14;;;;;;;40.00;19.05;;;;;;;2.96;82.58;100555.39;1666616;84;20919;-74
2022/12/21 04:29:05;;;;;;;37.50;18.67;;;;;;;2.99;82.58;100536.70;1665626;83;20946;-73
2022/12/21 04:31:50;;;;;;;34.83;18.65;;;;;;;2.98;82.60;100529.45;1670759;84;20950;-74
2022/12/21 04:34:35;;;;;;;33.73;18.65;;;;;;;2.99;82.58;100527.34;1663776;84;20906;-74
2022/12/21 04:37:32;;;;;;;32.23;19.32;;;;;;;3.02;82.57;100526.52;1687660;82;20915;-73
2022/12/21 04:40:17;;;;;;;35.25;17.60;;;;;;;3.05;82.60;100519.33;1694719;82;20975;-75
2022/12/21 04:43:03;;;;;;;30.88;17.35;;;;;;;3.06;82.57;100522.31;1692024;82;21807;-74
2022/12/21 04:45:48;;;;;;;34.95;17.87;;;;;;;3.07;82.57;100530.00;1686312;82;21019;-74
2022/12/21 04:48:33;;;;;;;36.23;19.02;;;;;;;3.08;82.54;100518.09;1695971;82;20934;-74
2022/12/21 04:51:22;;;;;;;35.88;17.92;;;;;;;3.09;82.54;100514.69;1707090;82;20926;-74
2022/12/21 04:54:07;;;;;;;38.60;19.12;;;;;;;3.09;82.55;100514.27;1662784;83;461202;-74
2022/12/21 04:56:51;;;;;;;36.23;19.30;;;;;;;3.10;82.53;100512.58;1671491;84;21052;-74
2022/12/21 04:59:36;;;;;;;33.92;18.70;;;;;;;3.12;82.56;100509.62;1695330;83;20949;-74
2022/12/21 05:02:21;;;;;;;40.17;19.73;;;;;;;3.13;82.56;100506.20;1681073;83;20966;-74
2022/12/21 05:05:07;;;;;;;36.23;18.82;;;;;;;3.14;82.57;100503.66;1701410;82;20914;-74
2022/12/21 05:07:53;;;;;;;35.70;18.40;;;;;;;3.16;82.57;100509.65;1686984;83;26792;-74
2022/12/21 05:10:38;;;;;;;36.03;19.10;;;;;;;3.19;82.56;100516.49;1685461;83;21478;-74
2022/12/21 05:13:23;;;;;;;35.17;18.02;;;;;;;3.20;82.56;100509.27;1699205;82;20942;-75
2022/12/21 05:16:12;;;;;;;32.17;18.87;;;;;;;3.21;82.53;100510.56;1673190;83;20942;-75
2022/12/21 05:18:57;;;;;;;36.63;19.82;;;;;;;3.24;82.53;100518.68;1696413;82;21574;-75
2022/12/21 05:21:42;;;;;;;34.10;17.85;;;;;;;3.25;82.55;100519.13;1681546;83;20916;-75
2022/12/21 05:24:27;;;;;;;28.90;17.35;;;;;;;3.27;82.56;100513.19;1676657;85;21537;-76
2022/12/21 05:27:12;;;;;;;32.78;18.12;;;;;;;3.29;82.54;100514.06;1660014;83;21050;-75
2022/12/21 05:29:57;;;;;;;36.50;19.00;;;;;;;3.31;82.54;100515.36;1699403;82;20948;-75
2022/12/21 05:32:42;;;;;;;37.00;18.02;;;;;;;3.32;82.51;100519.22;1697631;82;21399;-75
2022/12/21 05:35:27;;;;;;;32.63;17.73;;;;;;;3.35;82.51;100514.98;1667281;83;20950;-75
2022/12/21 05:38:12;;;;;;;35.70;18.77;;;;;;;3.36;82.52;100502.22;1689457;82;21508;-75
2022/12/21 05:40:57;;;;;;;30.27;17.73;;;;;;;3.39;82.52;100503.53;1694612;82;20950;-76
2022/12/21 05:43:42;;;;;;;35.68;19.35;;;;;;;3.40;82.51;100503.11;1686556;83;20941;-74
2022/12/21 05:46:27;;;;;;;35.88;19.77;;;;;;;3.42;82.47;100506.55;1697735;82;20914;-74
2022/12/21 05:49:12;;;;;;;35.78;18.27;;;;;;;3.44;82.50;100499.75;1651546;85;20962;-75
2022/12/21 05:51:57;;;;;;;33.05;17.85;;;;;;;3.44;82.50;100498.05;1671991;83;21029;-74
2022/12/21 05:54:42;;;;;;;34.15;17.60;;;;;;;3.45;82.48;100496.36;1689967;82;20995;-75
2022/12/21 05:57:27;;;;;;;33.53;18.30;;;;;;;3.46;82.46;100501.91;1659512;84;21415;-75
2022/12/21 06:00:13;;;;;;;33.98;17.87;;;;;;;3.45;82.46;100490.82;1686205;82;22123;-75
2022/12/21 06:02:58;;;;;;;30.72;18.10;;;;;;;3.45;82.43;100502.75;1662122;84;26966;-76
2022/12/21 06:05:44;;;;;;;33.25;17.92;;;;;;;3.46;82.44;100508.30;1669978;84;21364;-75
2022/12/21 06:08:30;;;;;;;30.72;16.97;;;;;;;3.47;82.46;100511.29;1659160;85;20963;-75
2022/12/21 06:11:19;;;;;;;33.38;17.67;;;;;;;3.47;82.45;100506.17;1656744;84;20936;-75
2022/12/21 06:14:04;;;;;;;34.10;18.75;;;;;;;3.45;82.43;100504.87;1673326;84;21526;-75
2022/12/21 06:16:49;;;;;;;33.70;18.42;;;;;;;3.45;82.46;100498.48;1661081;85;20960;-74
2022/12/21 06:19:34;;;;;;;29.95;17.50;;;;;;;3.46;82.48;100496.38;1663783;85;20937;-75
2022/12/21 06:22:19;;;;;;;33.83;17.40;;;;;;;3.47;82.48;100491.70;1673959;84;21502;-75
2022/12/21 06:25:05;;;;;;;30.95;19.00;;;;;;;3.47;82.45;100501.06;1682818;83;20926;-74
2022/12/21 06:27:50;;;;;;;37.60;18.62;;;;;;;3.47;82.46;100495.95;1689741;83;20934;-74
2022/12/21 06:30:35;;;;;;;32.80;18.42;;;;;;;3.48;82.46;100494.69;1676541;82;20952;-74
2022/12/21 06:33:22;;;;;;;35.92;19.45;;;;;;;3.47;82.45;100490.42;1683574;83;21375;-75
2022/12/21 06:36:09;;;;;;;33.08;18.32;;;;;;;3.48;82.43;100489.58;1685683;83;21360;-75
2022/12/21 06:38:56;;;;;;;38.63;18.90;;;;;;;3.47;82.41;100494.25;1681380;83;20939;-74
2022/12/21 06:41:40;;;;;;;33.42;18.50;;;;;;;3.48;82.44;100500.22;1688916;82;20915;-75
2022/12/21 06:44:26;;;;;;;38.50;20.15;;;;;;;3.47;82.46;100503.20;1684400;83;20951;-75
2022/12/21 06:47:11;;;;;;;35.95;19.42;;;;;;;3.46;82.48;100500.63;1685994;83;20990;-75
2022/12/21 06:49:56;;;;;;;40.83;21.12;;;;;;;3.46;82.45;100509.57;1684774;83;20966;-74
2022/12/21 06:52:41;;;;;;;42.27;21.95;;;;;;;3.46;82.44;100504.04;1683508;84;21359;-74
2022/12/21 06:55:26;;;;;;;41.08;21.42;;;;;;;3.45;82.45;100508.72;1683134;84;21439;-75
2022/12/21 06:58:13;;;;;;;38.35;20.17;;;;;;;3.45;82.45;100506.16;1683327;82;21565;-75
2022/12/21 07:01:04;;;;;;;40.78;21.15;;;;;;;3.43;82.48;100512.95;1683308;84;20975;-78
2022/12/21 07:03:50;;;;;;;35.03;19.27;;;;;;;3.44;82.51;100514.67;1683957;84;21553;-74
2022/12/21 07:06:35;;;;;;;40.10;20.17;;;;;;;3.43;82.48;100519.34;1682754;84;21030;-76
2022/12/21 07:09:20;;;;;;;33.88;19.07;;;;;;;3.44;82.48;100524.03;1683005;84;21255;-76
2022/12/21 07:12:05;;;;;;;35.65;18.35;;;;;;;3.44;82.48;100514.67;1683557;83;20998;-76
2022/12/21 07:14:50;;;;;;;37.33;18.80;;;;;;;3.44;82.46;100515.95;1683163;83;20946;-76
2022/12/21 07:17:35;;;;;;;36.42;18.87;;;;;;;3.46;82.48;100516.82;1683774;83;21511;-76
2022/12/21 07:20:20;;;;;;;32.63;18.50;;;;;;;3.47;82.45;100519.81;1681999;83;20994;-76
2022/12/21 07:23:05;;;;;;;37.15;18.90;;;;;;;3.50;82.46;100522.83;1684439;82;21510;-76
2022/12/21 07:25:50;;;;;;;35.48;17.48;;;;;;;3.50;82.46;100518.57;1681609;83;21084;-76
2022/12/21 07:28:35;;;;;;;35.92;18.48;;;;;;;3.52;82.47;100518.16;1679659;84;21336;-76
2022/12/21 07:31:23;;;;;;;33.02;18.23;;;;;;;3.52;82.45;100523.70;1680926;84;21522;-76
2022/12/21 07:34:08;;;;;;;33.55;18.52;;;;;;;3.53;82.44;100521.58;1673389;84;20903;-76
2022/12/21 07:36:53;;;;;;;37.35;19.10;;;;;;;3.55;82.46;100521.17;1685648;84;20995;-75
2022/12/21 07:39:38;;;;;;;35.83;19.15;;;;;;;3.57;82.45;100519.50;1679089;83;21550;-75
2022/12/21 07:42:24;;;;;;;33.20;17.73;;;;;;;3.59;82.45;100516.53;1682036;84;20970;-76
2022/12/21 07:45:09;;;;;;;34.80;18.80;;;;;;;3.59;82.44;100512.28;1680648;84;20987;-73
2022/12/21 07:47:57;;;;;;;31.37;16.75;;;;;;;3.60;82.44;100515.27;1680079;84;21419;-74
2022/12/21 07:50:43;;;;;;;34.55;18.65;;;;;;;3.61;82.42;100513.58;1666873;83;21010;-73
2022/12/21 07:53:27;;;;;;;33.85;17.67;;;;;;;3.62;82.43;100508.90;1664977;83;20958;-74
2022/12/21 07:56:15;;;;;;;33.10;18.15;;;;;;;3.64;82.43;100513.58;1672017;83;21042;-74
2022/12/21 07:59:00;;;;;;;34.08;18.23;;;;;;;3.65;82.42;100512.31;1666907;83;21009;-74
2022/12/21 08:01:45;;;;;;;39.80;19.98;;;;;;;3.64;82.42;100503.34;1664903;83;21400;-74
2022/12/21 08:04:31;;;;;;;32.80;17.65;;;;;;;3.67;82.42;100505.94;1668191;83;21077;-74
2022/12/21 08:07:16;;;;;;;40.43;19.12;;;;;;;3.68;82.44;100510.63;1666406;83;21120;-75
2022/12/21 08:10:01;;;;;;;33.80;18.55;;;;;;;3.69;82.44;100517.03;1666555;83;21164;-75
2022/12/21 08:12:46;;;;;;;35.75;18.45;;;;;;;3.71;82.43;100516.63;1668333;83;21110;-75
2022/12/21 08:15:31;;;;;;;38.85;19.25;;;;;;;3.73;82.45;100520.06;1664912;83;21081;-75
2022/12/21 08:18:16;;;;;;;34.55;19.50;;;;;;;3.76;82.43;100521.80;1662741;83;21008;-76
2022/12/21 08:21:01;;;;;;;32.67;19.15;;;;;;;3.77;82.42;100517.12;1640531;83;21138;-78
2022/12/21 08:23:50;;;;;;;37.73;18.35;;;;;;;3.79;82.46;100513.73;1641391;85;21069;-73
2022/12/21 08:26:34;;;;;;;38.70;21.33;;;;;;;3.82;82.47;100516.32;1639641;85;21599;-74
2022/12/21 08:29:19;;;;;;;36.60;19.37;;;;;;;3.85;82.49;100518.91;1641327;85;21098;-74
2022/12/21 08:32:05;;;;;;;41.05;21.30;;;;;;;3.88;82.50;100520.22;1641046;85;21192;-73
2022/12/21 08:34:50;;;;;;;33.18;19.07;;;;;;;3.91;82.51;100527.92;1640959;83;21098;-73
2022/12/21 08:37:34;;;;;;;36.85;19.12;;;;;;;3.92;82.47;100518.13;1641226;84;21165;-73
2022/12/21 08:40:19;;;;;;;35.05;18.70;;;;;;;3.93;82.47;100526.23;1641121;85;21062;-74
2022/12/21 08:43:05;;;;;;;37.25;18.80;;;;;;;3.95;82.47;100536.06;1643293;84;21574;-74
2022/12/21 08:45:52;;;;;;;33.40;18.30;;;;;;;3.96;82.48;100535.22;1642564;85;21720;-77
2022/12/21 08:48:37;;;;;;;37.35;18.73;;;;;;;3.96;82.48;100531.38;1641034;85;21122;-81
2022/12/21 08:51:22;;;;;;;35.92;19.90;;;;;;;3.97;82.51;100527.98;1663171;83;21676;-76
2022/12/21 08:54:08;;;;;;;32.73;19.32;;;;;;;3.98;82.47;100526.28;1665072;83;21129;-79
2022/12/21 08:56:53;;;;;;;36.23;19.37;;;;;;;3.98;82.54;100527.56;1650548;83;21053;-76
2022/12/21 08:59:38;;;;;;;39.45;20.10;;;;;;;4.01;82.57;100524.17;1669027;83;21438;-76
2022/12/21 09:02:23;;;;;;;35.65;19.25;;;;;;;4.03;82.55;100524.63;1665915;83;21081;-75
2022/12/21 09:05:08;;;;;;;34.90;19.23;;;;;;;4.05;82.58;100526.77;1667648;83;21140;-75
2022/12/21 09:07:54;;;;;;;32.10;17.70;;;;;;;4.05;82.56;100528.05;1667019;83;21069;-75
2022/12/21 09:10:39;;;;;;;36.10;18.55;;;;;;;4.06;82.58;100525.93;1664006;83;21073;-75
2022/12/21 09:13:24;;;;;;;32.55;17.73;;;;;;;4.07;82.59;100525.08;1667158;83;21152;-75
2022/12/21 09:16:20;;;;;;;33.02;18.20;;;;;;;4.10;82.62;100525.53;1666538;83;21097;-75
2022/12/21 09:19:05;;;;;;;33.25;19.23;;;;;;;4.12;82.64;100518.30;1666872;83;21672;-76
2022/12/21 09:21:50;;;;;;;35.25;18.92;;;;;;;4.14;82.67;100511.92;1665588;83;21092;-76
2022/12/21 09:24:35;;;;;;;38.02;19.52;;;;;;;4.16;82.67;100520.47;1666295;83;21681;-76
2022/12/21 09:27:20;;;;;;;34.55;19.50;;;;;;;4.16;82.69;100521.30;1665597;83;21065;-76
2022/12/21 09:30:07;;;;;;;36.28;19.35;;;;;;;4.19;82.71;100518.77;1663177;83;21030;-75
2022/12/21 09:32:52;;;;;;;32.80;19.23;;;;;;;4.19;82.70;100520.05;1652022;84;20997;-76
2022/12/21 09:35:38;;;;;;;36.90;19.10;;;;;;;4.19;82.69;100520.05;1646143;84;20946;-76
2022/12/21 09:38:23;;;;;;;37.20;19.32;;;;;;;4.20;82.71;100513.22;1668565;83;21324;-76
2022/12/21 09:41:31;;;;;;;35.80;19.23;;;;;;;4.20;82.73;100510.23;1674103;83;21316;-76
2022/12/21 09:44:30;;;;;;;36.50;18.77;;;;;;;4.22;82.75;100511.53;1673494;83;21526;-76
2022/12/21 09:47:20;;;;;;;36.08;19.25;;;;;;;4.24;82.79;100509.84;1670523;83;21050;-76
2022/12/21 09:50:16;;;;;;;36.00;20.62;;;;;;;4.25;82.81;100514.98;1676349;83;20959;-76
2022/12/21 09:53:11;;;;;;;36.90;19.35;;;;;;;4.26;82.80;100514.55;1679397;82;20930;-76
2022/12/21 09:55:59;;;;;;;35.78;19.55;;;;;;;4.27;82.83;100510.73;1684569;83;21846;-76
2022/12/21 09:58:49;;;;;;;37.10;21.33;;;;;;;4.29;82.85;100514.16;1682684;82;20991;-76
2022/12/21 10:01:42;;;;;;;42.35;21.93;;;;;;;4.33;82.88;100520.16;1684489;82;21563;-76
2022/12/21 10:05:06;;;;;;;40.43;21.87;;;;;;;4.35;82.90;100510.79;1680854;82;20990;-76
2022/12/21 10:08:18;;;;;;;38.73;20.68;;;;;;;4.36;82.88;100509.94;1682342;83;21373;-76
2022/12/21 10:11:11;;;;;;;43.70;22.55;;;;;;;4.38;82.85;100503.55;1654241;83;21033;-76
2022/12/21 10:14:25;;;;;;;46.50;23.25;;;;;;;4.39;82.90;100498.87;1680206;83;21125;-76
2022/12/21 10:17:33;;;;;;;40.25;21.82;;;;;;;4.43;82.93;100490.36;1683981;82;21123;-76
2022/12/21 10:20:32;;;;;;;45.78;22.15;;;;;;;4.47;82.95;100494.23;1681361;82;21118;-76
2022/12/21 10:23:35;;;;;;;46.25;22.95;;;;;;;4.50;82.94;100485.72;1684824;83;21045;-76
2022/12/21 10:26:25;;;;;;;43.02;23.87;;;;;;;4.50;82.91;100481.45;1682227;82;21593;-76
2022/12/21 10:29:18;;;;;;;41.45;23.18;;;;;;;4.53;82.94;100480.20;1684029;82;21109;-76
2022/12/21 10:32:03;;;;;;;41.02;22.77;;;;;;;4.55;82.96;100475.94;1681864;82;21172;-76
2022/12/21 10:34:52;;;;;;;49.15;25.02;;;;;;;4.60;83.00;100481.09;1665097;83;21050;-76
2022/12/21 10:37:38;;;;;;;42.93;23.55;;;;;;;4.59;82.95;100475.11;1678573;82;21022;-76
2022/12/21 10:40:31;;;;;;;43.33;23.70;;;;;;;4.62;82.99;100472.58;1684337;83;21106;-76
2022/12/21 10:43:17;;;;;;;43.30;24.92;;;;;;;4.65;83.00;100484.11;1683481;82;21665;-76
2022/12/21 10:46:02;;;;;;;47.75;24.85;;;;;;;4.69;83.04;100481.54;1681729;82;21726;-76
2022/12/21 10:48:49;;;;;;;43.60;24.15;;;;;;;4.70;83.00;100475.14;1680135;82;21053;-76
2022/12/21 10:51:35;;;;;;;46.27;26.00;;;;;;;4.73;83.00;100475.59;1626406;81;5001476;-76
2022/12/21 10:54:29;;;;;;;43.70;24.32;;;;;;;4.75;83.00;100470.91;1729706;80;21617;-75
2022/12/21 10:57:14;;;;;;;46.68;24.67;;;;;;;4.76;82.99;100471.34;1708788;81;21972;-75
2022/12/21 11:00:25;;;;;;;46.25;24.20;;;;;;;4.76;83.01;100467.92;1713407;81;21067;-75
2022/12/21 11:03:29;;;;;;;46.37;24.90;;;;;;;4.79;83.04;100466.66;1710638;81;21120;-75
2022/12/21 11:06:19;;;;;;;42.70;23.18;;;;;;;4.80;83.03;100462.82;1723787;81;21074;-75
2022/12/21 11:09:26;;;;;;;40.65;22.80;;;;;;;4.81;83.03;100463.25;1726687;81;21017;-76
2022/12/21 11:12:22;;;;;;;35.35;21.10;;;;;;;4.82;83.06;100462.41;1731380;81;21606;-76
2022/12/21 11:15:12;;;;;;;46.55;22.40;;;;;;;4.84;83.05;100461.13;1732253;80;21394;-76
2022/12/21 11:17:57;;;;;;;38.30;21.65;;;;;;;4.84;83.06;100469.67;1734170;81;21024;-76
2022/12/21 11:20:42;;;;;;;39.03;21.75;;;;;;;4.85;83.06;100471.81;1729272;81;21033;-76
2022/12/21 11:23:28;;;;;;;38.17;21.45;;;;;;;4.85;83.05;100467.55;1729931;81;21085;-76
2022/12/21 11:26:16;;;;;;;40.50;22.35;;;;;;;4.85;83.02;100470.53;1731055;81;21088;-76
2022/12/21 11:29:04;;;;;;;35.83;21.05;;;;;;;4.84;83.05;100463.69;1732653;81;21544;-76
2022/12/21 11:31:52;;;;;;;44.25;22.35;;;;;;;4.84;83.06;100459.42;1729393;81;21099;-76
2022/12/21 11:35:00;;;;;;;37.17;19.73;;;;;;;4.85;83.06;100447.47;1729592;80;21460;-76
2022/12/21 11:37:50;;;;;;;39.20;20.68;;;;;;;4.83;83.06;100449.17;1727615;80;21112;-76
2022/12/21 11:40:35;;;;;;;42.38;21.27;;;;;;;4.85;83.11;100456.44;1731612;80;21107;-75
2022/12/21 11:43:20;;;;;;;39.18;21.65;;;;;;;4.86;83.09;100455.59;1731542;81;21036;-75
2022/12/21 11:46:46;;;;;;;37.55;19.95;;;;;;;4.88;83.16;100453.47;1728997;80;21508;-76
2022/12/21 11:49:48;;;;;;;37.13;20.43;;;;;;;4.90;83.13;100453.48;1729621;81;21119;-76
2022/12/21 11:53:00;;;;;;;34.83;20.70;;;;;;;4.91;83.13;100444.52;1730523;80;21064;-76
2022/12/21 11:55:56;;;;;;;38.80;20.77;;;;;;;4.94;83.17;100444.95;1730273;81;21072;-76
2022/12/21 11:58:56;;;;;;;;;;;;;;;4.94;83.15;100441.97;1733887;81;21147;-76
2022/12/21 12:01:55;;;;;;;36.40;19.80;;;;;;;4.94;83.15;100426.59;1728525;80;20150;-76
2022/12/21 12:05:08;;;;;;;35.60;19.98;;;;;;;4.97;83.15;100430.88;1730352;80;21533;-76
2022/12/21 12:08:18;;;;;;;35.30;19.32;;;;;;;4.97;83.16;100426.61;1728193;80;21612;-75
2022/12/21 12:11:36;;;;;;;36.42;19.30;;;;;;;4.99;83.18;100426.61;1731376;80;21127;-76
2022/12/21 12:14:44;;;;;;;40.03;21.57;;;;;;;5.02;83.20;100422.78;1728866;81;21338;-76
2022/12/21 12:17:46;;;;;;;39.40;20.60;;;;;;;5.04;83.19;100418.94;1733097;80;21591;-76
2022/12/21 12:20:51;;;;;;;36.75;20.23;;;;;;;5.05;83.19;100426.63;1711435;81;21089;-76
2022/12/21 12:24:14;;;;;;;36.97;20.73;;;;;;;5.06;83.20;100418.52;1734736;80;20950;-76
2022/12/21 12:27:38;;;;;;;36.88;20.70;;;;;;;5.05;83.20;100412.54;1739508;81;21328;-76
2022/12/21 12:30:25;;;;;;;35.50;20.45;;;;;;;5.07;83.21;100417.24;1726837;80;20913;-76
2022/12/21 12:33:35;;;;;;;39.00;21.12;;;;;;;5.11;83.25;100423.23;1732332;81;21045;-76
2022/12/21 12:36:28;;;;;;;40.98;21.02;;;;;;;5.12;83.26;100419.83;1730386;80;21050;-76
2022/12/21 12:39:54;;;;;;;37.75;20.35;;;;;;;5.14;83.26;100426.66;1739093;81;21580;-76
2022/12/21 12:42:41;;;;;;;;;;;;;;;5.15;83.24;100426.23;1739021;80;21069;-76
2022/12/21 12:46:08;;;;;;;37.55;20.20;;;;;;;5.14;83.28;100430.94;1735410;81;21162;-76
2022/12/21 12:49:13;;;;;;;39.95;20.10;;;;;;;5.14;83.24;100433.50;1730943;81;22051;-76
2022/12/21 12:52:25;;;;;;;39.08;21.27;;;;;;;5.13;83.23;100425.38;1721655;80;21030;-76
2022/12/21 12:55:21;;;;;;;38.38;20.97;;;;;;;5.10;83.24;100410.85;1718582;82;21096;-76
2022/12/21 12:58:20;;;;;;;42.75;22.50;;;;;;;5.10;83.29;100414.69;1704864;82;21104;-76
2022/12/21 13:01:23;;;;;;;39.25;20.27;;;;;;;5.09;83.27;100405.30;1720427;82;21413;-75
2022/12/21 13:04:28;;;;;;;44.03;22.15;;;;;;;5.09;83.29;100405.30;1696758;82;21536;-75
2022/12/21 13:07:27;;;;;;;40.98;21.87;;;;;;;5.11;83.33;100403.59;1696320;82;21116;-76
2022/12/21 13:10:35;;;;;;;38.98;20.68;;;;;;;5.12;83.35;100401.88;1703753;82;21451;-76
2022/12/21 13:13:42;;;;;;;38.92;20.57;;;;;;;5.12;83.32;100405.30;1703097;83;21522;-76
2022/12/21 13:16:53;;;;;;;46.75;22.90;;;;;;;5.13;83.32;100408.30;1695491;82;21109;-76
2022/12/21 13:19:40;;;;;;;44.60;21.62;;;;;;;5.12;83.33;100410.42;1705385;82;21120;-76
2022/12/21 13:22:29;;;;;;;43.92;22.42;;;;;;;5.11;83.32;100406.58;1698984;82;21117;-76